Time;durP1;ratioP1;P1;durP2;ratioP2;P2;SDS_P1;SDS_P2;PMS_P1;PMS_P2;Temp;Humidity;BMP_temperature;BMP_pressure;BME280_temperature;BME280_humidity;BME280_pressure;Samples;Min_cycle;Max_cycle;Signal;HPM_P1;HPM_P2
2022/12/27 00:01:52;;;;;;;11.88;4.60;;;;;;;2.93;98.19;101556.41;4960140;29;20082;-79
2022/12/27 00:04:20;;;;;;;10.75;4.28;;;;;;;2.99;98.67;101562.06;4961479;28;20044;-78
2022/12/27 00:06:52;;;;;;;9.35;3.90;;;;;;;3.04;98.42;101567.00;4960155;28;20203;-79
2022/12/27 00:09:25;;;;;;;16.13;4.10;;;;;;;2.98;98.56;101559.56;4960128;28;20078;-79
2022/12/27 00:11:54;;;;;;;14.63;4.00;;;;;;;3.01;98.59;101561.97;4950033;29;20118;-78
2022/12/27 00:17:07;;;;;;;10.95;4.75;;;;;;;3.02;98.66;101562.81;4977961;28;20035;-78
2022/12/27 00:19:40;;;;;;;11.85;4.65;;;;;;;3.10;98.74;101581.34;4979870;28;20047;-78
2022/12/27 00:22:15;;;;;;;11.20;4.80;;;;;;;3.07;98.76;101577.16;4973722;28;20082;-78
2022/12/27 00:56:48;;;;;;;16.52;4.22;;;;;;;2.98;100.00;101598.34;4762149;26;20047;-78
2022/12/27 00:59:21;;;;;;;10.90;4.28;;;;;;;2.98;100.00;101599.19;4940921;29;20052;-78
2022/12/27 01:02:05;;;;;;;;;;;;;;;2.94;100.00;101587.34;4940386;29;20047;-77
2022/12/27 01:04:37;;;;;;;13.80;4.25;;;;;;;2.86;100.00;101573.16;4941291;29;19945;-77
2022/12/27 01:07:09;;;;;;;8.40;3.90;;;;;;;3.03;100.00;101590.34;4939756;29;20040;-78
2022/12/27 01:09:36;;;;;;;17.25;4.85;;;;;;;2.95;100.00;101598.50;4943135;29;20051;-78
2022/12/27 01:12:06;;;;;;;11.25;3.67;;;;;;;2.98;100.00;101594.00;4942608;29;20054;-80
2022/12/27 01:14:33;;;;;;;12.27;4.40;;;;;;;2.93;100.00;101600.34;4941884;29;20083;-78
2022/12/27 01:17:00;;;;;;;8.82;3.97;;;;;;;3.03;100.00;101603.28;4941483;29;20083;-79
2022/12/27 01:19:31;;;;;;;14.00;3.85;;;;;;;2.93;100.00;101596.00;4945845;29;20087;-79
2022/12/27 01:21:58;;;;;;;12.00;4.32;;;;;;;2.93;100.00;101602.94;4945737;29;20198;-78
2022/12/27 01:24:29;;;;;;;10.18;4.03;;;;;;;2.86;100.00;101593.84;4943589;29;20052;-79
2022/12/27 01:26:56;;;;;;;10.02;3.75;;;;;;;2.81;100.00;101588.09;4927767;29;20115;-80
2022/12/27 01:29:24;;;;;;;10.68;4.30;;;;;;;2.99;100.00;101606.03;4924138;29;20488;-80
2022/12/27 01:31:51;;;;;;;10.25;3.90;;;;;;;2.96;100.00;101611.34;4922552;29;20164;-79
2022/12/27 01:34:18;;;;;;;11.30;4.05;;;;;;;3.00;100.00;101619.78;4921731;29;20076;-79
2022/12/27 01:36:45;;;;;;;13.10;4.45;;;;;;;3.00;100.00;101622.38;4926187;29;20084;-79
2022/12/27 01:39:18;;;;;;;9.80;4.03;;;;;;;3.05;100.00;101615.19;4925634;29;20492;-79
2022/12/27 01:45:00;;;;;;;8.57;4.18;;;;;;;3.15;100.00;101612.94;4920913;29;19934;-80
2022/12/27 01:47:41;;;;;;;11.05;4.05;;;;;;;3.13;100.00;101622.53;4919769;29;20083;-80
2022/12/27 01:51:00;;;;;;;11.13;3.90;;;;;;;3.19;100.00;101617.03;4943461;23;20539;-80
2022/12/27 02:01:10;;;;;;;18.92;3.90;;;;;;;3.38;100.00;101616.84;4858962;29;20124;-81
2022/12/27 02:03:40;;;;;;;15.00;4.00;;;;;;;3.40;100.00;101613.25;4922004;23;20055;-82
2022/12/27 02:06:09;;;;;;;8.80;3.63;;;;;;;3.44;100.00;101622.50;4929787;29;20072;-81
2022/12/27 02:08:42;;;;;;;10.80;3.70;;;;;;;3.37;100.00;101628.94;4933494;29;20507;-83
2022/12/27 02:11:10;;;;;;;7.80;3.63;;;;;;;3.42;100.00;101629.50;4909679;29;20140;-82
2022/12/27 02:13:40;;;;;;;14.10;3.90;;;;;;;3.45;100.00;101637.09;4905197;29;20082;-83
2022/12/27 02:16:13;;;;;;;9.82;3.97;;;;;;;3.39;100.00;101640.03;4922141;29;20112;-84
2022/12/27 02:18:40;;;;;;;9.40;3.78;;;;;;;3.42;100.00;101633.84;4932573;29;20084;-82
2022/12/27 02:21:49;;;;;;;7.88;3.45;;;;;;;3.40;100.00;101636.53;4932823;29;20072;-84
2022/12/27 02:24:36;;;;;;;12.50;4.18;;;;;;;3.41;100.00;101643.38;4912767;29;20112;-83
2022/12/27 02:27:06;;;;;;;11.63;3.83;;;;;;;3.44;100.00;101647.53;4930589;29;20056;-82
2022/12/27 02:29:58;;;;;;;12.82;3.90;;;;;;;3.46;100.00;101631.00;4925987;29;20148;-83
2022/12/27 02:32:30;;;;;;;11.90;4.00;;;;;;;3.49;100.00;101641.19;4925502;29;20492;-82
2022/12/27 02:35:08;;;;;;;8.85;3.55;;;;;;;3.54;100.00;101635.75;4927672;29;20079;-82
2022/12/27 02:37:41;;;;;;;21.08;5.05;;;;;;;3.54;100.00;101649.53;4927121;29;20071;-84
2022/12/27 02:54:34;;;;;;;8.57;3.80;;;;;;;3.49;100.00;101638.59;4925094;29;20063;-83
2022/12/27 02:57:08;;;;;;;12.80;4.18;;;;;;;3.44;100.00;101647.53;4927595;29;20087;-82
2022/12/27 03:05:42;;;;;;;12.40;4.03;;;;;;;3.38;100.00;101653.88;4926152;29;20062;-80
2022/12/27 03:08:17;;;;;;;13.23;4.10;;;;;;;3.36;100.00;101666.06;4925569;29;20044;-80
2022/12/27 03:16:27;;;;;;;11.23;4.10;;;;;;;3.42;100.00;101678.66;4932991;29;20120;-82
2022/12/27 03:19:04;;;;;;;12.38;4.13;;;;;;;3.38;100.00;101664.22;4932554;29;20052;-81
2022/12/27 03:27:16;;;;;;;11.38;4.60;;;;;;;3.38;100.00;101674.59;4930443;29;20107;-80
2022/12/27 03:35:35;;;;;;;15.45;4.82;;;;;;;3.34;100.00;101688.59;4935098;29;20052;-81
2022/12/27 03:38:04;;;;;;;11.15;4.93;;;;;;;3.29;100.00;101685.47;4934460;29;20052;-81
2022/12/27 03:43:09;;;;;;;12.35;4.20;;;;;;;3.34;100.00;101683.44;4935323;29;20058;-82
2022/12/27 03:43:30;;;;;;;14.07;5.10;;;;;;;3.28;100.00;101686.38;4934737;29;20116;-82
2022/12/27 03:49:04;;;;;;;11.55;5.00;;;;;;;3.25;100.00;101686.53;4934928;29;20090;-81
2022/12/27 03:51:37;;;;;;;19.27;5.40;;;;;;;3.25;100.00;101691.72;4932212;29;20115;-81
2022/12/27 03:54:09;;;;;;;14.95;4.75;;;;;;;3.25;100.00;101689.13;4930885;29;20055;-82
2022/12/27 03:56:36;;;;;;;16.17;4.97;;;;;;;3.26;100.00;101694.22;4931383;29;20079;-82
2022/12/27 03:59:05;;;;;;;11.63;5.03;;;;;;;3.27;100.00;101697.66;4930646;29;20107;-81
2022/12/27 04:01:31;;;;;;;11.00;4.85;;;;;;;3.15;100.00;101693.13;4929705;29;20080;-83
2022/12/27 04:03:58;;;;;;;12.30;5.65;;;;;;;3.12;100.00;101695.88;4929664;29;20079;-81
2022/12/27 04:06:24;;;;;;;11.48;5.00;;;;;;;3.12;100.00;101708.81;4933820;29;20085;-81
2022/12/27 04:36:14;;;;;;;17.67;4.88;;;;;;;3.24;100.00;101674.53;4930567;29;20063;-83
2022/12/27 04:38:40;;;;;;;11.98;4.38;;;;;;;3.37;100.00;101691.03;4928180;29;20119;-83
2022/12/27 04:55:20;;;;;;;10.77;4.50;;;;;;;3.38;100.00;101679.75;4913771;29;20076;-85
2022/12/27 04:57:49;;;;;;;10.15;4.13;;;;;;;3.43;100.00;101682.94;4914145;29;20472;-85
2022/12/27 05:03:06;;;;;;;9.35;4.35;;;;;;;3.56;100.00;101690.84;4912941;29;20085;-84
2022/12/27 05:05:33;;;;;;;14.77;4.40;;;;;;;3.55;100.00;101692.59;4912507;29;20052;-83
2022/12/27 05:14:00;;;;;;;11.65;4.30;;;;;;;3.52;100.00;101703.13;4924879;29;20048;-81
2022/12/27 05:16:27;;;;;;;12.43;4.32;;;;;;;3.64;100.00;101722.31;4924895;29;20098;-82
2022/12/27 05:18:53;;;;;;;8.35;4.05;;;;;;;3.75;100.00;101711.38;4929244;29;20116;-82
2022/12/27 05:21:20;;;;;;;14.02;4.20;;;;;;;3.78;100.00;101724.16;4931171;29;20507;-84
2022/12/27 05:26:32;;;;;;;18.55;4.25;;;;;;;3.81;100.00;101729.13;4931389;29;20462;-85
2022/12/27 05:29:01;;;;;;;11.13;3.95;;;;;;;3.89;100.00;101721.78;4930858;29;20086;-84
2022/12/27 05:31:29;;;;;;;10.27;4.28;;;;;;;3.90;100.00;101724.28;4930623;29;20136;-83
2022/12/27 05:33:56;;;;;;;19.20;4.30;;;;;;;3.88;100.00;101725.28;4931759;29;20067;-84
2022/12/27 05:36:23;;;;;;;10.48;4.40;;;;;;;3.79;100.00;101730.97;4930423;29;20075;-84
2022/12/27 05:38:50;;;;;;;12.05;4.15;;;;;;;3.76;100.00;101720.81;4930448;29;20157;-84
2022/12/27 05:41:17;;;;;;;18.23;4.50;;;;;;;3.75;100.00;101725.16;4928684;29;20581;-83
2022/12/27 05:43:44;;;;;;;12.40;4.72;;;;;;;3.75;100.00;101734.69;4929431;29;20504;-83
2022/12/27 05:46:14;;;;;;;13.82;4.53;;;;;;;3.61;100.00;101740.63;4930201;29;20052;-84
2022/12/27 05:48:41;;;;;;;15.00;4.32;;;;;;;3.54;100.00;101744.44;4928437;29;20095;-82
2022/12/27 05:51:09;;;;;;;13.65;4.38;;;;;;;3.47;100.00;101746.53;4928590;29;20052;-81
2022/12/27 05:53:36;;;;;;;11.68;4.90;;;;;;;3.38;100.00;101741.84;4931486;29;20083;-84
2022/12/27 05:56:03;;;;;;;12.27;4.93;;;;;;;3.38;100.00;101747.03;4932279;29;20542;-84
2022/12/27 05:58:30;;;;;;;12.27;4.85;;;;;;;3.36;100.00;101748.84;4932952;29;20040;-83
2022/12/27 06:00:57;;;;;;;11.32;4.50;;;;;;;3.43;100.00;101754.53;4930318;29;20116;-84
2022/12/27 06:03:25;;;;;;;14.38;5.10;;;;;;;3.40;100.00;101750.38;4926866;29;20079;-82
2022/12/27 06:05:58;;;;;;;13.25;5.03;;;;;;;3.44;100.00;101757.03;4926091;29;20076;-81
2022/12/27 06:08:25;;;;;;;11.10;4.55;;;;;;;3.45;100.00;101765.66;4926292;29;20120;-83
2022/12/27 06:11:01;;;;;;;12.30;4.50;;;;;;;3.42;100.00;101764.06;4929682;29;20147;-84
2022/12/27 06:13:28;;;;;;;9.93;4.60;;;;;;;3.42;100.00;101776.16;4930967;29;20127;-84
2022/12/27 06:15:54;;;;;;;17.25;4.53;;;;;;;3.37;100.00;101770.38;4929543;29;20076;-83
2022/12/27 06:18:21;;;;;;;14.75;5.10;;;;;;;3.37;100.00;101768.63;4926482;29;20120;-82
2022/12/27 06:20:49;;;;;;;15.20;5.03;;;;;;;3.34;100.00;101772.22;4927147;29;20120;-82
2022/12/27 06:23:15;;;;;;;12.35;4.45;;;;;;;3.22;100.00;101772.06;4926060;29;20127;-82
2022/12/27 06:25:42;;;;;;;15.23;4.45;;;;;;;3.34;100.00;101782.56;4926885;29;20131;-82
2022/12/27 06:28:08;;;;;;;14.80;4.40;;;;;;;3.40;100.00;101785.75;4926752;29;20448;-82
2022/12/27 06:30:35;;;;;;;11.52;4.43;;;;;;;3.31;100.00;101774.13;4924090;29;20075;-82
2022/12/27 06:33:02;;;;;;;9.80;4.20;;;;;;;3.33;100.00;101780.06;4924810;29;20055;-82
2022/12/27 06:35:28;;;;;;;11.68;4.40;;;;;;;3.25;100.00;101774.50;4925038;29;20119;-82
2022/12/27 06:37:56;;;;;;;10.45;4.03;;;;;;;3.28;100.00;101777.75;4924647;29;20079;-82
2022/12/27 06:40:23;;;;;;;12.35;4.55;;;;;;;3.31;100.00;101772.38;4924655;29;20120;-83
2022/12/27 06:42:49;;;;;;;8.82;4.20;;;;;;;3.30;100.00;101772.50;4925363;29;20087;-82
2022/12/27 06:45:16;;;;;;;11.82;4.10;;;;;;;3.26;100.00;101768.41;4924355;29;20135;-83
2022/12/27 06:47:43;;;;;;;17.83;4.22;;;;;;;3.31;100.00;101781.91;4924936;29;20471;-83
2022/12/27 06:50:10;;;;;;;16.50;5.05;;;;;;;3.26;100.00;101778.75;4924081;29;20130;-81
2022/12/27 06:52:36;;;;;;;11.75;4.28;;;;;;;3.26;100.00;101787.34;4923048;29;20135;-83
2022/12/27 06:55:05;;;;;;;11.88;4.88;;;;;;;3.14;100.00;101792.31;4927244;29;20194;-82
2022/12/27 06:57:32;;;;;;;8.80;4.03;;;;;;;3.10;100.00;101793.38;4928200;29;20076;-83
2022/12/27 06:59:58;;;;;;;13.02;4.90;;;;;;;3.01;100.00;101807.63;4923301;29;20143;-80
2022/12/27 07:02:25;;;;;;;11.40;4.32;;;;;;;2.98;100.00;101795.69;4925183;29;20083;-81
2022/12/27 07:04:51;;;;;;;18.15;5.20;;;;;;;2.87;100.00;101795.41;4928979;29;20116;-81
2022/12/27 07:07:18;;;;;;;13.07;5.30;;;;;;;2.84;100.00;101797.28;4929903;29;20139;-82
2022/12/27 07:09:44;;;;;;;16.00;4.97;;;;;;;2.85;100.00;101804.13;4929849;29;20115;-81
2022/12/27 07:12:12;;;;;;;12.80;4.70;;;;;;;2.84;100.00;101803.31;4930219;29;20116;-82
2022/12/27 07:14:39;;;;;;;15.65;5.30;;;;;;;2.77;100.00;101812.31;4929802;29;20076;-83
2022/12/27 07:17:06;;;;;;;16.23;4.90;;;;;;;2.82;100.00;101815.50;4929148;29;20492;-83
2022/12/27 07:19:32;;;;;;;15.95;5.15;;;;;;;2.69;100.00;101804.09;4928014;29;20113;-81
2022/12/27 07:21:59;;;;;;;22.15;6.00;;;;;;;2.76;100.00;101826.16;4925124;29;20543;-80
2022/12/27 07:24:25;;;;;;;16.88;5.00;;;;;;;2.57;100.00;101825.38;4906776;29;20072;-81
2022/12/27 07:26:52;;;;;;;22.98;5.38;;;;;;;2.47;100.00;101824.16;4907023;29;20136;-81
2022/12/27 07:29:20;;;;;;;13.18;5.22;;;;;;;2.38;100.00;101834.91;4913795;29;20084;-81
2022/12/27 07:31:47;;;;;;;15.57;4.80;;;;;;;2.32;100.00;101829.16;4927245;29;20056;-82
2022/12/27 07:34:13;;;;;;;9.20;4.78;;;;;;;2.37;100.00;101830.66;4930676;29;20075;-82
2022/12/27 07:36:40;;;;;;;13.45;4.65;;;;;;;2.35;100.00;101846.28;4928179;29;20131;-82
2022/12/27 07:39:08;;;;;;;8.27;4.68;;;;;;;2.46;100.00;101849.13;4926688;29;20098;-83
2022/12/27 07:41:35;;;;;;;13.32;5.00;;;;;;;2.44;100.00;101844.97;4926459;29;20142;-81
2022/12/27 07:44:03;;;;;;;13.63;5.15;;;;;;;2.53;100.00;101844.53;4926212;29;20051;-80
2022/12/27 07:46:31;;;;;;;16.13;5.35;;;;;;;2.62;100.00;101852.66;4924855;29;20491;-80
2022/12/27 07:48:58;;;;;;;16.13;4.97;;;;;;;2.67;100.00;101862.78;4923799;29;20098;-80
2022/12/27 07:51:26;;;;;;;12.45;4.90;;;;;;;2.65;100.00;101856.84;4925087;29;20464;-80
2022/12/27 07:53:54;;;;;;;22.85;10.20;;;;;;;2.78;100.00;101860.50;4923819;29;20228;-80
2022/12/27 07:56:22;;;;;;;18.05;6.50;;;;;;;2.78;100.00;101855.34;4924782;29;20223;-81
2022/12/27 07:58:50;;;;;;;20.65;7.78;;;;;;;2.77;100.00;101864.00;4925322;29;20079;-80
2022/12/27 08:01:19;;;;;;;17.35;5.20;;;;;;;2.91;100.00;101860.72;4924583;29;20080;-80
2022/12/27 08:04:07;;;;;;;12.35;5.10;;;;;;;2.95;100.00;101857.06;4935795;23;20139;-81
2022/12/27 08:06:49;;;;;;;18.33;5.15;;;;;;;3.07;100.00;101868.53;4911173;29;20508;-80
2022/12/27 08:10:04;;;;;;;19.42;5.68;;;;;;;3.13;100.00;101861.31;4903841;29;20053;-81
2022/12/27 08:13:34;;;;;;;11.90;5.40;;;;;;;3.37;100.00;101879.06;4870942;29;20077;-77
2022/12/27 08:16:15;;;;;;;22.52;13.48;;;;;;;3.36;100.00;101878.22;4850439;29;20049;-80
2022/12/27 08:22:10;;;;;;;15.45;8.40;;;;;;;3.32;100.00;101856.00;4859870;29;20064;-80
2022/12/27 08:35:14;;;;;;;15.80;5.40;;;;;;;3.27;100.00;101858.03;4890604;29;20018;-81
2022/12/27 08:38:02;;;;;;;10.32;4.50;;;;;;;3.36;100.00;101861.84;4893611;29;20053;-79
2022/12/27 08:40:43;;;;;;;12.23;4.47;;;;;;;3.51;100.00;101877.44;4834918;29;20081;-80
2022/12/27 08:43:23;;;;;;;18.00;4.60;;;;;;;3.65;100.00;101885.31;4863675;29;20535;-82
2022/12/27 08:48:53;;;;;;;11.60;4.50;;;;;;;3.62;100.00;101864.78;4862221;29;20067;-79
2022/12/27 08:52:26;;;;;;;;;;;;;;;;;;;;;
2022/12/27 09:01:43;;;;;;;11.80;5.18;;;;;;;3.91;100.00;101885.66;4869464;29;20113;-82
2022/12/27 09:04:24;;;;;;;13.57;4.93;;;;;;;3.94;100.00;101885.50;4868542;29;20505;-83
2022/12/27 09:07:21;;;;;;;20.35;5.80;;;;;;;3.99;100.00;101878.31;4869198;29;20077;-82
2022/12/27 09:09:50;;;;;;;18.05;5.60;;;;;;;4.00;100.00;101872.22;4871179;29;20053;-82
2022/12/27 09:12:19;;;;;;;17.83;5.22;;;;;;;3.98;100.00;101876.66;4870156;29;20065;-82
2022/12/27 09:15:11;;;;;;;13.65;4.50;;;;;;;4.10;100.00;101876.00;4880635;29;20416;-83
2022/12/27 09:17:49;;;;;;;12.30;4.55;;;;;;;4.30;100.00;101901.63;4868342;29;20113;-81
2022/12/27 09:20:24;;;;;;;14.70;4.40;;;;;;;4.24;100.00;101877.81;4864158;29;20054;-81
2022/12/27 09:28:29;;;;;;;10.23;4.30;;;;;;;4.42;100.00;101863.81;4923162;29;20095;-82
2022/12/27 09:30:58;;;;;;;15.93;4.50;;;;;;;4.63;100.00;101900.66;4878197;29;20052;-82
2022/12/27 09:33:26;;;;;;;9.98;4.50;;;;;;;4.65;100.00;101884.09;4921246;29;20571;-81
2022/12/27 09:36:04;;;;;;;14.55;4.60;;;;;;;4.60;100.00;101870.56;4922750;29;20048;-82
2022/12/27 09:38:31;;;;;;;12.13;4.53;;;;;;;4.79;100.00;101885.88;4901696;29;20056;-82
2022/12/27 09:40:59;;;;;;;13.50;4.10;;;;;;;4.80;100.00;101873.75;4925614;23;20466;-83
2022/12/27 09:43:36;;;;;;;14.10;4.55;;;;;;;4.96;100.00;101890.94;4940331;29;20047;-81
2022/12/27 09:46:10;;;;;;;13.43;4.60;;;;;;;4.98;100.00;101886.50;4937285;29;20079;-82
2022/12/27 09:48:39;;;;;;;10.18;4.78;;;;;;;5.04;100.00;101894.84;4920527;29;20602;-80
2022/12/27 09:51:12;;;;;;;13.57;4.43;;;;;;;5.09;100.00;101885.06;4931801;29;20112;-80
2022/12/27 09:53:44;;;;;;;18.83;4.80;;;;;;;5.16;100.00;101899.34;4925813;29;20112;-81
2022/12/27 09:56:14;;;;;;;14.27;4.97;;;;;;;5.20;100.00;101890.44;4940502;29;20555;-81
2022/12/27 09:58:47;;;;;;;7.93;4.50;;;;;;;5.30;100.00;101879.41;4927275;29;20082;-81
2022/12/27 10:01:24;;;;;;;13.70;4.72;;;;;;;5.35;100.00;101889.50;4930871;29;20051;-80
2022/12/27 10:03:52;;;;;;;12.35;4.72;;;;;;;5.34;100.00;101888.69;4941291;29;20075;-82
2022/12/27 10:06:33;;;;;;;12.25;4.47;;;;;;;5.50;100.00;101885.16;4942738;29;20070;-82
2022/12/27 10:09:06;;;;;;;11.63;4.45;;;;;;;5.52;99.70;101888.50;4925544;29;20052;-81
2022/12/27 10:11:43;;;;;;;11.40;4.38;;;;;;;5.61;99.35;101883.59;4927954;29;20044;-82
2022/12/27 10:14:26;;;;;;;11.73;4.20;;;;;;;5.52;99.46;101863.38;4933755;29;20082;-81
2022/12/27 10:17:05;;;;;;;11.18;4.20;;;;;;;5.76;99.02;101897.38;4946910;29;20131;-82
2022/12/27 10:19:41;;;;;;;14.88;4.35;;;;;;;5.91;98.74;101901.69;4939988;29;20051;-81
2022/12/27 10:22:20;;;;;;;15.98;4.07;;;;;;;5.99;98.39;101886.44;4941536;29;20075;-81
2022/12/27 10:24:50;;;;;;;11.10;3.92;;;;;;;5.96;97.79;101888.41;4940576;29;20091;-77
2022/12/27 10:27:20;;;;;;;11.35;4.07;;;;;;;5.95;97.89;101884.97;4940661;29;20056;-79
2022/12/27 10:29:48;;;;;;;11.55;3.92;;;;;;;6.07;98.11;101891.19;4940411;29;20146;-80
2022/12/27 10:32:16;;;;;;;15.93;4.65;;;;;;;6.10;97.49;101897.94;4940103;29;20115;-80
2022/12/27 10:34:43;;;;;;;11.30;4.20;;;;;;;6.14;96.96;101883.81;4942221;29;20083;-81
2022/12/27 10:37:14;;;;;;;15.15;6.03;;;;;;;6.10;97.31;101885.78;4943704;29;20369;-81
2022/12/27 10:39:42;;;;;;;13.70;4.50;;;;;;;6.11;97.03;101894.41;4948211;29;20055;-81
2022/12/27 10:42:21;;;;;;;15.90;4.55;;;;;;;6.13;96.77;101880.41;4943106;29;20135;-81
2022/12/27 10:44:48;;;;;;;15.25;5.13;;;;;;;6.07;96.44;101885.97;4947553;29;20047;-80
2022/12/27 10:47:16;;;;;;;12.35;4.57;;;;;;;6.07;96.48;101892.94;4940978;29;20120;-84
2022/12/27 10:50:02;;;;;;;13.77;5.93;;;;;;;6.17;96.39;101889.63;4948838;28;20075;-79
2022/12/27 10:52:34;;;;;;;13.13;4.30;;;;;;;6.13;96.42;101895.16;4955941;29;20078;-78
2022/12/27 10:55:00;;;;;;;9.88;3.90;;;;;;;6.15;96.11;101890.66;4951006;29;20051;-80
2022/12/27 10:57:32;;;;;;;15.88;4.10;;;;;;;6.14;96.21;101889.03;4951605;29;20062;-79
2022/12/27 11:00:16;;;;;;;9.32;3.92;;;;;;;6.13;96.34;101883.00;4947901;29;20055;-78
2022/12/27 11:02:54;;;;;;;9.48;3.95;;;;;;;6.03;96.43;101892.28;4951633;29;20048;-78
2022/12/27 11:05:22;;;;;;;14.40;4.28;;;;;;;5.94;96.57;101885.06;4951974;29;20160;-79
2022/12/27 11:07:49;;;;;;;9.73;4.07;;;;;;;5.88;96.81;101882.81;4953625;28;20051;-82
2022/12/27 11:10:19;;;;;;;12.73;4.22;;;;;;;5.87;96.88;101876.78;4952504;29;20079;-79
2022/12/27 11:12:55;;;;;;;10.32;3.92;;;;;;;5.88;97.09;101888.84;4955387;28;20129;-81
2022/12/27 11:15:22;;;;;;;10.48;4.47;;;;;;;5.94;96.71;101874.69;4953839;29;20052;-80
2022/12/27 11:17:53;;;;;;;12.63;4.82;;;;;;;6.13;96.43;101885.59;4953647;29;20047;-82
2022/12/27 11:20:23;;;;;;;9.25;4.18;;;;;;;6.27;96.15;101895.94;4952577;29;20128;-80
2022/12/27 11:22:52;;;;;;;12.07;4.53;;;;;;;6.42;95.61;101891.53;4954270;28;20093;-80
2022/12/27 11:25:20;;;;;;;9.77;4.10;;;;;;;6.53;95.27;101890.84;4951677;29;20089;-79
2022/12/27 11:27:49;;;;;;;10.50;4.20;;;;;;;6.65;94.86;101888.25;4951812;28;20072;-79
2022/12/27 11:30:30;;;;;;;10.88;3.90;;;;;;;6.70;94.14;101877.56;4952891;28;20119;-81
2022/12/27 11:33:03;;;;;;;14.77;3.90;;;;;;;6.72;93.80;101886.09;4964869;29;20057;-79
2022/12/27 11:35:29;;;;;;;13.55;5.20;;;;;;;6.84;93.76;101885.28;4959902;28;20087;-80
2022/12/27 11:37:56;;;;;;;12.20;3.88;;;;;;;6.81;93.64;101875.09;4954158;29;20111;-80
2022/12/27 11:40:29;;;;;;;7.68;3.55;;;;;;;6.86;93.67;101875.63;4956769;28;20288;-82
2022/12/27 11:43:04;;;;;;;11.15;4.38;;;;;;;6.81;93.53;101869.88;4954528;29;20087;-78
2022/12/27 11:45:38;;;;;;;10.93;4.18;;;;;;;6.85;93.46;101876.56;4955951;28;20149;-79
2022/12/27 11:48:20;;;;;;;10.77;3.83;;;;;;;6.84;93.52;101880.09;4955911;28;20091;-80
2022/12/27 11:51:01;;;;;;;8.50;3.80;;;;;;;6.88;93.41;101876.34;4956090;29;20102;-80
2022/12/27 11:53:56;;;;;;;8.05;3.80;;;;;;;7.08;93.06;101871.59;4958381;29;20063;-81
2022/12/27 11:56:29;;;;;;;10.70;4.40;;;;;;;7.24;92.72;101877.41;4962802;29;20127;-80
2022/12/27 11:59:28;;;;;;;10.80;3.50;;;;;;;7.54;91.86;101883.13;4964329;29;20058;-80
2022/12/27 12:02:16;;;;;;;11.55;3.70;;;;;;;7.72;91.14;101870.59;4959500;28;20075;-81
2022/12/27 12:05:14;;;;;;;14.90;8.23;;;;;;;7.85;90.15;101860.16;4953821;29;20055;-81
2022/12/27 12:08:05;;;;;;;11.65;4.20;;;;;;;7.95;89.51;101866.38;4960521;29;20139;-81
2022/12/27 12:10:40;;;;;;;9.82;4.38;;;;;;;8.02;88.98;101859.78;4956665;28;20075;-80
2022/12/27 12:13:49;;;;;;;12.32;6.00;;;;;;;8.02;88.64;101859.78;4967614;28;20074;-81
2022/12/27 12:16:39;;;;;;;11.75;3.85;;;;;;;7.91;88.79;101854.50;4955932;28;20043;-81
2022/12/27 12:19:26;;;;;;;7.55;3.33;;;;;;;7.85;88.89;101847.13;4952363;28;20138;-82
2022/12/27 12:22:12;;;;;;;12.48;3.70;;;;;;;7.77;89.07;101842.44;4959114;28;20131;-82
2022/12/27 12:25:03;;;;;;;13.40;5.43;;;;;;;7.71;89.04;101832.44;4957901;28;20111;-83
2022/12/27 12:27:46;;;;;;;11.93;4.82;;;;;;;7.76;89.17;101842.53;4952780;29;20075;-83
2022/12/27 12:33:21;;;;;;;11.70;3.85;;;;;;;7.48;89.78;101817.63;4909015;23;20112;-81
2022/12/27 12:36:27;;;;;;;10.52;5.28;;;;;;;7.64;89.68;101839.03;4901395;29;20575;-80
2022/12/27 12:39:09;;;;;;;11.35;4.05;;;;;;;7.66;89.71;101827.56;4901056;29;20052;-82
2022/12/27 12:41:53;;;;;;;10.40;4.40;;;;;;;7.50;89.41;101811.38;4903967;29;20072;-82
2022/12/27 12:44:48;;;;;;;12.38;4.65;;;;;;;7.52;89.52;101829.50;4904612;29;20500;-79
2022/12/27 12:47:34;;;;;;;10.65;3.47;;;;;;;7.55;89.88;101824.06;4907221;29;20479;-82
2022/12/27 12:53:16;;;;;;;9.23;3.38;;;;;;;7.53;89.71;101825.94;4901453;29;20044;-82
2022/12/27 12:56:00;;;;;;;13.55;3.50;;;;;;;7.58;89.72;101829.88;4903207;29;20087;-82
2022/12/27 12:58:50;;;;;;;14.55;4.70;;;;;;;7.56;90.07;101816.13;4909879;29;20080;-81
2022/12/27 13:01:29;;;;;;;7.15;3.45;;;;;;;7.63;89.85;101817.34;4908712;29;20112;-81
2022/12/27 13:04:12;;;;;;;11.88;4.80;;;;;;;7.66;89.48;101811.09;4910238;29;20048;-80
2022/12/27 13:06:54;;;;;;;;;;;;;;;7.75;89.30;101796.59;4910957;29;20095;-82
2022/12/27 13:09:34;;;;;;;12.43;4.32;;;;;;;7.79;89.34;101803.25;4907687;29;19978;-81
2022/12/27 13:12:09;;;;;;;11.23;3.42;;;;;;;7.85;88.57;101789.78;4910412;29;20092;-81
2022/12/27 13:14:55;;;;;;;9.00;3.60;;;;;;;7.82;88.35;101788.22;4909536;29;20181;-82
2022/12/27 13:17:29;;;;;;;9.00;3.75;;;;;;;7.80;88.22;101782.28;4902113;29;20100;-80
2022/12/27 13:20:17;;;;;;;7.97;3.88;;;;;;;7.75;88.58;101788.78;4902994;29;20131;-79
2022/12/27 13:22:53;;;;;;;15.82;4.55;;;;;;;7.79;88.51;101779.78;4898192;29;20067;-79
2022/12/27 13:25:28;;;;;;;9.93;3.65;;;;;;;7.76;88.62;101777.41;4900381;29;20452;-81
2022/12/27 13:28:03;;;;;;;14.25;4.13;;;;;;;7.69;88.33;101760.56;4907561;29;20131;-81
2022/12/27 13:30:35;;;;;;;12.98;4.00;;;;;;;7.69;88.26;101768.38;4907047;29;20215;-82
2022/12/27 13:33:22;;;;;;;8.40;2.47;;;;;;;7.61;88.24;101764.53;4899498;29;20135;-81
2022/12/27 13:36:05;;;;;;;12.02;3.60;;;;;;;7.59;88.19;101763.81;4902981;29;20311;-81
2022/12/27 13:38:48;;;;;;;9.93;3.30;;;;;;;7.62;87.70;101762.75;4889824;29;20060;-78
2022/12/27 13:41:28;;;;;;;13.40;3.67;;;;;;;7.54;87.67;101755.50;4903417;29;20127;-80
2022/12/27 13:44:12;;;;;;;9.80;3.70;;;;;;;7.46;88.16;101751.78;4893304;29;20088;-80
2022/12/27 13:46:52;;;;;;;6.88;3.00;;;;;;;7.52;87.89;101752.19;4900088;29;20131;-80
2022/12/27 13:49:59;;;;;;;12.55;3.65;;;;;;;7.54;87.17;101745.09;4894389;29;20132;-80
2022/12/27 13:52:48;;;;;;;9.70;3.50;;;;;;;7.52;87.11;101736.56;4899398;29;20131;-80
2022/12/27 13:55:36;;;;;;;11.77;3.60;;;;;;;7.57;86.96;101739.63;4906585;29;20130;-81
2022/12/27 13:58:32;;;;;;;10.70;3.70;;;;;;;7.64;86.95;101740.03;4906706;29;20072;-81
2022/12/27 14:01:15;;;;;;;14.23;3.40;;;;;;;7.60;86.87;101739.41;4901484;29;20124;-81
2022/12/27 14:04:07;;;;;;;10.35;3.50;;;;;;;7.63;86.68;101733.16;4892882;29;20080;-80
2022/12/27 14:06:52;;;;;;;9.13;3.90;;;;;;;7.57;86.79;101731.81;4897253;29;20140;-81
2022/12/27 14:09:59;;;;;;;6.47;3.03;;;;;;;7.67;86.89;101739.81;4899916;29;20080;-80
2022/12/27 14:12:53;;;;;;;9.35;3.33;;;;;;;7.64;86.78;101737.44;4899208;29;20140;-80
2022/12/27 14:15:22;;;;;;;8.35;3.17;;;;;;;7.58;86.35;101724.84;4905668;29;20044;-79
2022/12/27 14:18:08;;;;;;;7.63;3.28;;;;;;;7.56;86.66;101724.16;4908716;29;20079;-81
2022/12/27 14:20:47;;;;;;;8.20;3.65;;;;;;;7.49;86.62;101730.72;4909891;29;20084;-80
2022/12/27 14:23:30;;;;;;;10.93;3.38;;;;;;;7.49;86.62;101731.56;4910976;29;20146;-80
2022/12/27 14:26:21;;;;;;;6.13;3.10;;;;;;;7.54;86.30;101724.25;4910023;29;20072;-82
2022/12/27 14:29:30;;;;;;;8.88;3.05;;;;;;;7.49;86.39;101718.53;4912775;29;20072;-82
2022/12/27 14:32:32;;;;;;;7.63;2.67;;;;;;;7.61;85.54;101716.81;4888599;29;20087;-80
2022/12/27 14:35:35;;;;;;;13.23;3.03;;;;;;;7.64;84.40;101716.59;4909175;29;20077;-79
2022/12/27 14:38:20;;;;;;;;;;;;;;;7.62;84.18;101727.13;4878862;29;20112;-80
2022/12/27 14:41:24;;;;;;;8.30;3.13;;;;;;;7.56;84.42;101721.53;4898992;29;19959;-82
2022/12/27 14:44:30;;;;;;;12.55;3.38;;;;;;;7.48;85.07;101721.25;4894118;29;20049;-80
2022/12/27 14:47:25;;;;;;;11.75;3.10;;;;;;;7.59;84.28;101727.34;4910633;29;20060;-83
2022/12/27 14:50:30;;;;;;;8.68;3.22;;;;;;;7.44;84.65;101701.59;4902284;29;20061;-84
2022/12/27 14:53:31;;;;;;;9.38;3.42;;;;;;;7.39;84.45;101694.09;4888720;29;20049;-82
2022/12/27 14:56:11;;;;;;;13.60;3.25;;;;;;;7.38;84.95;101702.84;4902850;29;20049;-82
2022/12/27 14:58:50;;;;;;;9.27;3.45;;;;;;;7.46;85.03;101717.94;4903894;29;20532;-82